createdAt,value
2018-12-31T00:02:34.928Z,13.40
2018-12-31T00:05:03.978Z,11.67
2018-12-31T00:07:32.882Z,12.83
2018-12-31T00:10:01.794Z,10.87
2018-12-31T00:12:30.675Z,11.97
2018-12-31T00:15:00.221Z,11.77
2018-12-31T00:17:29.612Z,11.37
2018-12-31T00:19:58.572Z,12.00
2018-12-31T00:22:27.570Z,11.87
2018-12-31T00:24:56.885Z,12.03
2018-12-31T00:27:26.180Z,13.00
2018-12-31T00:29:55.725Z,11.40
2018-12-31T00:32:25.100Z,11.63
2018-12-31T00:34:54.068Z,11.97
2018-12-31T00:37:23.371Z,11.80
2018-12-31T00:39:52.363Z,11.83
2018-12-31T00:42:21.819Z,12.30
2018-12-31T00:44:50.934Z,11.43
2018-12-31T00:47:20.276Z,12.70
2018-12-31T00:49:49.888Z,11.83
2018-12-31T00:52:20.659Z,11.23
2018-12-31T00:54:49.674Z,11.87
2018-12-31T00:57:18.942Z,11.20
2018-12-31T00:59:47.883Z,11.33
2018-12-31T01:02:16.936Z,11.07
2018-12-31T01:04:46.809Z,11.10
2018-12-31T01:07:16.057Z,11.13
2018-12-31T01:09:45.054Z,10.67
2018-12-31T01:12:14.123Z,11.50
2018-12-31T01:14:43.445Z,10.93
2018-12-31T01:17:12.637Z,10.93
2018-12-31T01:19:41.825Z,9.73
2018-12-31T01:22:11.281Z,10.83
2018-12-31T01:24:40.842Z,9.77
2018-12-31T01:27:09.834Z,9.90
2018-12-31T01:29:38.732Z,10.93
2018-12-31T01:32:07.682Z,9.97
2018-12-31T01:34:36.602Z,9.93
2018-12-31T01:37:05.870Z,9.80
2018-12-31T01:39:35.167Z,10.17
2018-12-31T01:42:04.537Z,10.10
2018-12-31T01:44:33.855Z,10.50
2018-12-31T01:47:03.476Z,10.83
2018-12-31T01:49:32.438Z,9.63
2018-12-31T01:52:01.671Z,10.57
2018-12-31T01:54:30.668Z,9.60
2018-12-31T01:56:59.605Z,9.77
2018-12-31T01:59:28.500Z,9.60
2018-12-31T02:01:57.490Z,10.00
2018-12-31T02:04:26.449Z,10.00
2018-12-31T02:06:55.692Z,10.47
2018-12-31T02:09:24.648Z,10.87
2018-12-31T02:11:54.056Z,10.70
2018-12-31T02:14:23.541Z,9.53
2018-12-31T02:16:52.849Z,10.03
2018-12-31T02:19:21.919Z,8.97
2018-12-31T02:21:50.940Z,9.13
2018-12-31T02:24:19.990Z,9.40
2018-12-31T02:26:49.300Z,8.50
2018-12-31T02:29:21.935Z,8.27
2018-12-31T02:31:50.958Z,7.83
2018-12-31T02:34:19.984Z,8.27
2018-12-31T02:36:49.376Z,7.67
2018-12-31T02:39:18.359Z,7.73
2018-12-31T02:41:47.419Z,7.40
2018-12-31T02:44:16.415Z,7.20
2018-12-31T02:46:45.362Z,7.60
2018-12-31T02:49:14.356Z,7.87
2018-12-31T02:51:43.225Z,7.40
2018-12-31T02:54:12.515Z,7.50
2018-12-31T02:56:41.870Z,7.13
2018-12-31T02:59:10.861Z,6.43
2018-12-31T03:01:39.731Z,5.93
2018-12-31T03:04:09.716Z,6.13
2018-12-31T03:06:38.796Z,5.30
2018-12-31T03:09:08.695Z,5.60
2018-12-31T03:11:37.957Z,5.57
2018-12-31T03:14:06.928Z,5.53
2018-12-31T03:16:35.900Z,5.20
2018-12-31T03:19:04.951Z,4.83
2018-12-31T03:21:33.974Z,5.57
2018-12-31T03:24:03.219Z,5.00
2018-12-31T03:26:32.231Z,4.93
2018-12-31T03:29:01.410Z,5.60
2018-12-31T03:31:30.797Z,5.00
2018-12-31T03:34:00.167Z,5.53
2018-12-31T03:36:29.125Z,5.47
2018-12-31T03:38:58.489Z,5.40
2018-12-31T03:41:27.786Z,6.10
2018-12-31T03:43:56.999Z,6.37
2018-12-31T03:46:26.390Z,6.07
2018-12-31T03:48:56.003Z,5.97
2018-12-31T03:51:25.167Z,6.57
2018-12-31T03:53:54.172Z,6.60
2018-12-31T03:56:23.179Z,6.33
2018-12-31T03:58:52.619Z,7.70
2018-12-31T04:01:21.992Z,7.37
2018-12-31T04:03:50.974Z,6.93
2018-12-31T04:06:20.130Z,7.93
2018-12-31T04:08:49.407Z,8.00
2018-12-31T04:11:18.856Z,8.67
2018-12-31T04:13:47.812Z,8.50
2018-12-31T04:16:16.776Z,7.60
2018-12-31T04:18:45.737Z,8.70
2018-12-31T04:21:15.021Z,9.20
2018-12-31T04:23:44.062Z,8.93
2018-12-31T04:26:13.002Z,9.00
2018-12-31T04:28:42.397Z,8.20
2018-12-31T04:31:11.616Z,9.43
2018-12-31T04:33:40.890Z,9.53
2018-12-31T04:36:09.996Z,9.47
2018-12-31T04:38:38.895Z,9.90
2018-12-31T04:41:08.540Z,11.43
2018-12-31T04:43:37.513Z,11.30
2018-12-31T04:46:07.167Z,11.10
2018-12-31T04:48:36.747Z,11.13
2018-12-31T04:51:06.559Z,11.70
2018-12-31T04:53:35.878Z,11.93
2018-12-31T04:56:05.161Z,10.77
2018-12-31T04:58:34.145Z,11.93
2018-12-31T05:01:03.469Z,11.03
2018-12-31T05:03:32.457Z,11.43
2018-12-31T05:06:01.807Z,11.70
2018-12-31T05:08:31.865Z,11.93
2018-12-31T05:11:00.856Z,12.07
2018-12-31T05:13:29.823Z,12.10
2018-12-31T05:15:59.070Z,13.10
2018-12-31T05:18:28.665Z,12.83
2018-12-31T05:20:57.697Z,13.10
2018-12-31T05:23:27.083Z,12.37
2018-12-31T05:25:56.249Z,13.30
2018-12-31T05:28:25.899Z,12.30
2018-12-31T05:30:54.883Z,13.20
2018-12-31T05:33:23.825Z,12.20
2018-12-31T05:35:52.850Z,13.53
2018-12-31T05:38:21.779Z,13.17
2018-12-31T05:40:51.248Z,13.07
2018-12-31T05:43:20.887Z,12.53
2018-12-31T05:45:49.782Z,13.13
2018-12-31T05:48:19.048Z,13.37
2018-12-31T05:50:48.012Z,12.17
2018-12-31T05:53:17.213Z,11.63
2018-12-31T05:55:46.179Z,14.20
2018-12-31T05:58:15.503Z,12.87
2018-12-31T06:00:44.728Z,12.33
2018-12-31T06:03:13.641Z,12.93
2018-12-31T06:05:42.615Z,13.27
2018-12-31T06:08:11.537Z,13.30
2018-12-31T06:10:40.431Z,13.10
2018-12-31T06:13:09.388Z,13.57
2018-12-31T06:15:38.776Z,14.43
2018-12-31T06:18:07.689Z,13.37
2018-12-31T06:20:36.898Z,12.93
2018-12-31T06:23:06.192Z,12.93
2018-12-31T06:25:35.229Z,13.00
2018-12-31T06:28:04.321Z,12.27
2018-12-31T06:30:33.350Z,13.47
2018-12-31T06:33:02.451Z,12.87
2018-12-31T06:35:31.610Z,11.93
2018-12-31T06:38:00.668Z,13.77
2018-12-31T06:40:29.628Z,14.37
2018-12-31T06:42:58.569Z,13.40
2018-12-31T06:45:28.145Z,13.70
2018-12-31T06:47:58.194Z,14.03
2018-12-31T06:50:27.253Z,14.97
2018-12-31T06:52:57.635Z,13.70
2018-12-31T06:55:26.696Z,13.57
2018-12-31T06:58:01.564Z,14.70
2018-12-31T07:00:30.606Z,13.40
2018-12-31T07:02:59.920Z,13.90
2018-12-31T07:05:28.909Z,14.07
2018-12-31T07:07:58.276Z,14.53
2018-12-31T07:10:28.312Z,13.60
2018-12-31T07:12:58.014Z,14.73
2018-12-31T07:15:27.709Z,15.40
2018-12-31T07:17:56.749Z,14.57
2018-12-31T07:20:29.102Z,15.80
2018-12-31T07:22:58.101Z,16.23
2018-12-31T07:25:27.059Z,16.50
2018-12-31T07:27:56.407Z,15.53
2018-12-31T07:30:25.373Z,19.30
2018-12-31T07:32:54.390Z,19.00
2018-12-31T07:35:23.451Z,18.73
2018-12-31T07:37:52.861Z,20.17
2018-12-31T07:40:21.859Z,19.80
2018-12-31T07:42:50.835Z,19.13
2018-12-31T07:45:19.931Z,19.20
2018-12-31T07:47:49.641Z,20.03
2018-12-31T07:50:19.082Z,53.03
2018-12-31T07:52:48.044Z,45.20
2018-12-31T07:55:16.972Z,19.03
2018-12-31T07:57:46.049Z,19.90
2018-12-31T08:00:15.412Z,19.77
2018-12-31T08:02:44.846Z,21.33
2018-12-31T08:05:13.835Z,21.20
2018-12-31T08:07:43.160Z,21.00
2018-12-31T08:10:12.383Z,21.80
2018-12-31T08:12:41.437Z,22.20
2018-12-31T08:15:11.134Z,22.27
2018-12-31T08:17:40.025Z,22.07
2018-12-31T08:20:09.478Z,23.03
2018-12-31T08:22:38.948Z,23.93
2018-12-31T08:25:07.944Z,22.87
2018-12-31T08:27:37.012Z,22.87
2018-12-31T08:30:06.347Z,22.97
2018-12-31T08:32:35.396Z,21.87
2018-12-31T08:35:04.497Z,22.17
2018-12-31T08:37:33.838Z,21.50
2018-12-31T08:40:02.722Z,21.37
2018-12-31T08:42:32.152Z,21.13
2018-12-31T08:45:01.605Z,21.77
2018-12-31T08:47:30.850Z,22.73
2018-12-31T08:50:02.832Z,21.57
2018-12-31T08:52:31.240Z,20.93
2018-12-31T08:55:00.500Z,20.90
2018-12-31T08:57:29.374Z,22.40
2018-12-31T08:59:58.719Z,20.90
2018-12-31T09:02:27.696Z,21.77
2018-12-31T09:04:56.684Z,22.37
2018-12-31T09:07:26.155Z,22.20
2018-12-31T09:09:55.466Z,22.83
2018-12-31T09:12:24.485Z,22.17
2018-12-31T09:14:53.466Z,22.73
2018-12-31T09:17:22.415Z,23.67
2018-12-31T09:19:51.724Z,23.40
2018-12-31T09:22:21.141Z,24.20
2018-12-31T09:24:50.236Z,22.73
2018-12-31T09:27:19.497Z,24.80
2018-12-31T09:29:48.804Z,23.90
2018-12-31T09:32:18.142Z,23.23
2018-12-31T09:34:47.216Z,24.00
2018-12-31T09:37:16.162Z,22.83
2018-12-31T09:39:45.461Z,22.93
2018-12-31T09:42:14.698Z,24.00
2018-12-31T09:44:43.977Z,22.33
2018-12-31T09:47:13.003Z,24.00
2018-12-31T09:49:42.362Z,24.00
2018-12-31T09:52:11.624Z,24.77
2018-12-31T09:54:40.986Z,22.13
2018-12-31T09:57:10.102Z,21.67
2018-12-31T09:59:39.155Z,24.00
2018-12-31T10:02:08.415Z,23.73
2018-12-31T10:04:37.404Z,23.13
2018-12-31T10:07:06.375Z,21.60
2018-12-31T10:09:35.557Z,21.47
2018-12-31T10:12:04.852Z,21.53
2018-12-31T10:14:33.928Z,23.07
2018-12-31T10:17:02.973Z,22.03
2018-12-31T10:19:32.530Z,22.67
2018-12-31T10:22:01.869Z,21.23
2018-12-31T10:24:30.813Z,22.60
2018-12-31T10:26:59.874Z,23.33
2018-12-31T10:29:35.783Z,23.17
2018-12-31T10:32:00.312Z,24.60
2018-12-31T10:34:29.807Z,21.17
2018-12-31T10:36:59.299Z,22.43
2018-12-31T10:39:28.385Z,23.83
2018-12-31T10:41:57.875Z,23.33
2018-12-31T10:44:26.928Z,23.60
2018-12-31T10:46:55.915Z,22.80
2018-12-31T10:49:24.854Z,24.50
2018-12-31T10:51:54.276Z,22.70
2018-12-31T10:54:23.256Z,22.53
2018-12-31T10:56:52.339Z,25.33
2018-12-31T10:59:21.385Z,22.30
2018-12-31T11:01:50.445Z,22.27
2018-12-31T11:04:19.502Z,23.07
2018-12-31T11:06:48.490Z,23.70
2018-12-31T11:09:17.729Z,23.50
2018-12-31T11:11:46.712Z,23.10
2018-12-31T11:14:16.145Z,25.07
2018-12-31T11:16:45.442Z,23.50
2018-12-31T11:19:14.365Z,24.47
2018-12-31T11:21:43.759Z,24.17
2018-12-31T11:24:12.896Z,23.20
2018-12-31T11:26:41.985Z,22.77
2018-12-31T11:29:11.236Z,23.07
2018-12-31T11:31:40.463Z,23.20
2018-12-31T11:34:09.406Z,21.30
2018-12-31T11:36:38.761Z,21.43
2018-12-31T11:39:08.470Z,22.97
2018-12-31T11:41:37.497Z,22.57
2018-12-31T11:44:06.507Z,21.17
2018-12-31T11:46:35.910Z,21.40
2018-12-31T11:49:05.364Z,20.37
2018-12-31T11:51:34.429Z,20.53
2018-12-31T11:54:03.694Z,21.47
2018-12-31T11:56:33.071Z,22.13
2018-12-31T11:59:02.398Z,21.37
2018-12-31T12:01:31.823Z,20.53
2018-12-31T12:04:01.147Z,22.33
2018-12-31T12:06:30.111Z,21.30
2018-12-31T12:08:59.437Z,20.20
2018-12-31T12:11:28.793Z,22.73
2018-12-31T12:13:58.201Z,23.23
2018-12-31T12:16:27.318Z,22.10
2018-12-31T12:18:56.752Z,22.93
2018-12-31T12:21:26.734Z,23.93
2018-12-31T12:23:55.669Z,22.93
2018-12-31T12:26:24.621Z,23.33
2018-12-31T12:28:53.755Z,22.63
2018-12-31T12:31:22.786Z,21.23
2018-12-31T12:33:51.801Z,22.40
2018-12-31T12:36:20.922Z,22.57
2018-12-31T12:38:50.748Z,21.13
2018-12-31T12:41:19.762Z,22.47
2018-12-31T12:43:48.944Z,20.47
2018-12-31T12:46:17.937Z,24.43
2018-12-31T12:48:46.823Z,22.53
2018-12-31T12:51:15.862Z,21.37
2018-12-31T12:53:44.821Z,20.20
2018-12-31T12:56:14.207Z,21.53
2018-12-31T12:58:43.452Z,20.77
2018-12-31T13:01:12.457Z,20.00
2018-12-31T13:03:42.167Z,20.87
2018-12-31T13:06:11.206Z,19.23
2018-12-31T13:08:40.512Z,22.63
2018-12-31T13:11:09.517Z,20.53
2018-12-31T13:13:38.487Z,19.30
2018-12-31T13:16:07.935Z,18.57
2018-12-31T13:18:37.344Z,26.23
2018-12-31T13:21:07.059Z,19.27
2018-12-31T13:23:36.110Z,18.90
2018-12-31T13:26:05.095Z,18.77
2018-12-31T13:28:34.286Z,19.23
2018-12-31T13:31:03.369Z,18.27
2018-12-31T13:33:33.161Z,19.07
2018-12-31T13:36:02.097Z,18.60
2018-12-31T13:38:31.113Z,18.90
2018-12-31T13:41:00.716Z,18.67
2018-12-31T13:43:30.172Z,18.90
2018-12-31T13:45:59.950Z,18.70
2018-12-31T13:48:28.932Z,20.27
2018-12-31T13:50:57.948Z,18.23
2018-12-31T13:53:27.353Z,19.17
2018-12-31T13:55:56.316Z,18.03
2018-12-31T13:58:26.002Z,18.00
2018-12-31T14:00:54.980Z,17.23
2018-12-31T14:03:23.954Z,18.03
2018-12-31T14:05:52.889Z,18.80
2018-12-31T14:08:22.142Z,18.03
2018-12-31T14:10:51.300Z,17.70
2018-12-31T14:13:20.296Z,18.23
2018-12-31T14:15:49.335Z,19.77
2018-12-31T14:18:18.489Z,17.87
2018-12-31T14:20:47.901Z,21.27
2018-12-31T14:23:16.990Z,18.87
2018-12-31T14:25:46.440Z,16.17
2018-12-31T14:28:15.414Z,18.90
2018-12-31T14:30:44.718Z,17.40
2018-12-31T14:33:13.719Z,22.63
2018-12-31T14:35:45.977Z,18.70
2018-12-31T14:38:14.234Z,16.43
2018-12-31T14:40:43.221Z,17.23
2018-12-31T14:43:12.242Z,16.53
2018-12-31T14:45:41.993Z,16.10
2018-12-31T14:48:11.232Z,18.13
2018-12-31T14:50:40.113Z,21.60
2018-12-31T14:53:09.730Z,17.23
2018-12-31T14:55:38.994Z,16.87
2018-12-31T14:58:08.138Z,17.60
2018-12-31T15:00:37.546Z,16.47
2018-12-31T15:03:06.691Z,17.20
2018-12-31T15:05:36.089Z,16.17
2018-12-31T15:08:05.080Z,17.87
2018-12-31T15:10:34.437Z,17.20
2018-12-31T15:13:03.725Z,16.80
2018-12-31T15:15:33.220Z,15.70
2018-12-31T15:18:02.141Z,16.27
2018-12-31T15:20:31.248Z,16.33
2018-12-31T15:23:01.120Z,16.90
2018-12-31T15:25:30.160Z,17.57
2018-12-31T15:27:59.411Z,16.40
2018-12-31T15:30:28.718Z,18.73
2018-12-31T15:32:57.702Z,19.17
2018-12-31T15:35:27.128Z,19.33
2018-12-31T15:37:56.450Z,23.07
2018-12-31T15:40:25.536Z,20.73
2018-12-31T15:42:54.491Z,20.23
2018-12-31T15:45:23.561Z,20.97
2018-12-31T15:47:52.990Z,21.57
2018-12-31T15:50:22.811Z,21.80
2018-12-31T15:52:52.535Z,19.33
2018-12-31T15:55:21.758Z,21.43
2018-12-31T15:57:50.743Z,22.10
2018-12-31T16:00:20.201Z,19.53
2018-12-31T16:02:49.606Z,20.20
2018-12-31T16:05:18.956Z,21.37
2018-12-31T16:07:48.686Z,24.03
2018-12-31T16:10:17.721Z,20.33
2018-12-31T16:12:47.296Z,22.40
2018-12-31T16:15:16.717Z,20.40
2018-12-31T16:17:46.402Z,20.23
2018-12-31T16:20:15.419Z,19.73
2018-12-31T16:22:44.493Z,20.33
2018-12-31T16:25:13.558Z,19.30
2018-12-31T16:27:42.493Z,20.73
2018-12-31T16:30:11.400Z,20.17
2018-12-31T16:32:40.885Z,19.97
2018-12-31T16:35:10.001Z,22.57
2018-12-31T16:37:38.984Z,21.97
2018-12-31T16:40:08.290Z,20.77
2018-12-31T16:42:37.362Z,22.90
2018-12-31T16:45:07.394Z,21.93
2018-12-31T16:47:36.883Z,22.60
2018-12-31T16:50:06.872Z,21.30
2018-12-31T16:52:35.889Z,21.30
2018-12-31T16:55:05.085Z,23.00
2018-12-31T16:57:34.119Z,22.40
2018-12-31T17:00:03.217Z,21.53
2018-12-31T17:02:32.104Z,22.53
2018-12-31T17:05:01.044Z,21.80
2018-12-31T17:07:30.095Z,22.40
2018-12-31T17:09:59.488Z,22.73
2018-12-31T17:12:28.595Z,21.53
2018-12-31T17:14:58.342Z,23.93
2018-12-31T17:17:27.792Z,23.03
2018-12-31T17:19:56.741Z,23.27
2018-12-31T17:22:26.410Z,24.53
2018-12-31T17:24:55.388Z,23.50
2018-12-31T17:27:24.835Z,26.27
2018-12-31T17:29:53.807Z,28.00
2018-12-31T17:32:23.220Z,27.03
2018-12-31T17:34:53.021Z,27.47
2018-12-31T17:37:22.021Z,25.50
2018-12-31T17:39:51.758Z,24.03
2018-12-31T17:42:20.756Z,23.40
2018-12-31T17:44:49.701Z,22.67
2018-12-31T17:47:18.782Z,23.50
2018-12-31T17:49:48.198Z,24.37
2018-12-31T17:52:17.775Z,22.97
2018-12-31T17:54:46.766Z,23.67
2018-12-31T17:57:15.946Z,25.67
2018-12-31T17:59:45.034Z,23.63
2018-12-31T18:02:14.025Z,22.60
2018-12-31T18:04:43.791Z,27.10
2018-12-31T18:07:13.168Z,25.20
2018-12-31T18:09:42.338Z,23.47
2018-12-31T18:12:11.552Z,22.03
2018-12-31T18:14:41.092Z,23.57
2018-12-31T18:17:10.640Z,24.00
2018-12-31T18:19:39.638Z,24.50
2018-12-31T18:22:08.733Z,25.10
2018-12-31T18:24:37.957Z,24.67
2018-12-31T18:27:06.955Z,26.17
2018-12-31T18:29:36.247Z,24.97
2018-12-31T18:32:05.294Z,25.03
2018-12-31T18:34:34.593Z,23.60
2018-12-31T18:37:03.642Z,24.83
2018-12-31T18:39:33.018Z,24.10
2018-12-31T18:42:02.171Z,23.43
2018-12-31T18:44:31.608Z,23.20
2018-12-31T18:47:01.093Z,24.83
2018-12-31T18:49:30.568Z,25.57
2018-12-31T18:52:00.234Z,25.63
2018-12-31T18:54:29.592Z,25.97
2018-12-31T18:56:58.893Z,25.97
2018-12-31T18:59:28.273Z,27.73
2018-12-31T19:01:57.703Z,24.53
2018-12-31T19:04:26.633Z,26.40
2018-12-31T19:06:56.146Z,24.60
2018-12-31T19:09:25.090Z,26.90
2018-12-31T19:11:54.786Z,26.13
2018-12-31T19:14:23.878Z,25.30
2018-12-31T19:16:53.245Z,27.23
2018-12-31T19:19:22.631Z,25.53
2018-12-31T19:21:53.023Z,26.27
2018-12-31T19:24:21.910Z,26.47
2018-12-31T19:26:50.843Z,25.43
2018-12-31T19:29:19.819Z,24.37
2018-12-31T19:31:49.586Z,27.63
2018-12-31T19:34:19.236Z,26.30
2018-12-31T19:36:48.620Z,26.30
2018-12-31T19:39:17.626Z,26.37
2018-12-31T19:41:46.694Z,66.10
2018-12-31T19:44:16.109Z,28.87
2018-12-31T19:46:45.497Z,26.90
2018-12-31T19:49:14.476Z,28.30
2018-12-31T19:51:43.521Z,27.13
2018-12-31T19:54:12.513Z,29.27
2018-12-31T19:56:42.118Z,28.67
2018-12-31T19:59:11.698Z,30.50
2018-12-31T20:01:40.936Z,28.47
2018-12-31T20:04:10.240Z,28.30
2018-12-31T20:06:39.664Z,29.33
2018-12-31T20:09:09.366Z,32.67
2018-12-31T20:11:38.431Z,29.63
2018-12-31T20:14:07.870Z,30.30
2018-12-31T20:16:36.962Z,30.53
2018-12-31T20:19:06.332Z,29.20
2018-12-31T20:21:35.736Z,28.20
2018-12-31T20:24:04.998Z,27.43
2018-12-31T20:26:34.052Z,27.40
2018-12-31T20:29:03.652Z,27.90
2018-12-31T20:31:32.637Z,26.40
2018-12-31T20:34:02.043Z,26.97
2018-12-31T20:36:31.548Z,26.33
2018-12-31T20:39:00.649Z,29.17
2018-12-31T20:41:29.605Z,28.13
2018-12-31T20:44:00.318Z,27.53
2018-12-31T20:46:29.480Z,26.43
2018-12-31T20:48:58.737Z,27.47
2018-12-31T20:51:27.699Z,26.30
2018-12-31T20:53:57.483Z,25.40
2018-12-31T20:56:26.516Z,26.70
2018-12-31T20:58:55.915Z,27.40
2018-12-31T21:01:25.053Z,26.23
2018-12-31T21:03:54.024Z,26.37
2018-12-31T21:06:23.307Z,25.83
2018-12-31T21:08:52.571Z,23.97
2018-12-31T21:11:21.484Z,28.13
2018-12-31T21:13:50.637Z,25.73
2018-12-31T21:16:19.662Z,24.17
2018-12-31T21:18:49.094Z,23.47
2018-12-31T21:21:18.293Z,23.77
2018-12-31T21:23:47.398Z,23.27
2018-12-31T21:26:16.500Z,22.30
2018-12-31T21:28:46.000Z,21.83
2018-12-31T21:31:15.057Z,21.60
2018-12-31T21:33:44.505Z,22.63
2018-12-31T21:36:13.562Z,22.17
2018-12-31T21:38:42.527Z,20.90
2018-12-31T21:41:11.472Z,20.53
2018-12-31T21:43:41.012Z,22.10
2018-12-31T21:46:10.495Z,22.27
2018-12-31T21:48:39.876Z,22.07
2018-12-31T21:51:08.839Z,20.37
2018-12-31T21:53:38.758Z,21.07
2018-12-31T21:56:08.386Z,24.03
2018-12-31T21:58:37.797Z,21.63
2018-12-31T22:01:06.845Z,22.50
2018-12-31T22:03:35.896Z,21.40
2018-12-31T22:06:05.308Z,23.00
2018-12-31T22:08:34.265Z,27.10
2018-12-31T22:11:03.238Z,26.13
2018-12-31T22:13:32.135Z,31.67
2018-12-31T22:16:01.122Z,27.10
2018-12-31T22:18:30.794Z,24.60
2018-12-31T22:20:59.807Z,23.73
2018-12-31T22:23:28.703Z,25.80
2018-12-31T22:25:57.704Z,24.33
2018-12-31T22:28:27.248Z,22.13
2018-12-31T22:30:56.986Z,24.70
2018-12-31T22:33:25.986Z,22.37
2018-12-31T22:35:55.254Z,24.53
2018-12-31T22:38:24.254Z,25.37
2018-12-31T22:40:53.713Z,26.73
2018-12-31T22:43:22.664Z,28.03
2018-12-31T22:45:52.076Z,27.57
2018-12-31T22:48:21.383Z,28.43
2018-12-31T22:50:50.414Z,27.50
2018-12-31T22:53:19.509Z,30.07
2018-12-31T22:55:48.764Z,29.23
2018-12-31T22:58:17.941Z,33.57
2018-12-31T23:00:48.747Z,39.87
2018-12-31T23:03:17.738Z,999.90
2018-12-31T23:05:46.899Z,516.50
2018-12-31T23:08:16.747Z,910.70
2018-12-31T23:10:45.749Z,831.20
2018-12-31T23:13:14.737Z,871.07
2018-12-31T23:15:44.792Z,951.90
2018-12-31T23:18:13.845Z,779.50
2018-12-31T23:20:43.493Z,494.13
2018-12-31T23:23:12.868Z,424.43
2018-12-31T23:25:42.288Z,869.40
2018-12-31T23:28:11.607Z,406.57
2018-12-31T23:30:41.022Z,146.33
2018-12-31T23:33:10.482Z,120.30
2018-12-31T23:35:39.629Z,161.17
2018-12-31T23:38:08.535Z,124.73
2018-12-31T23:40:37.509Z,95.23
2018-12-31T23:43:06.879Z,162.67
2018-12-31T23:45:36.350Z,572.40
2018-12-31T23:48:05.868Z,146.33
2018-12-31T23:50:35.165Z,104.90
2018-12-31T23:53:04.200Z,96.70
2018-12-31T23:55:33.464Z,136.03
2018-12-31T23:58:03.396Z,95.17
